METAR Data
IDs: Format: Raw Decoded Include TAF

Data at: 1225 UTC 15 Jul 2020

KFLO 151153Z 06005KT 9SM CLR 28/24 A3008 RMK AO2 SLP182 T02830244 10283 20261 53015
KFLO 151053Z 06004KT 5SM BR CLR 26/24 A3006 RMK AO2 SLP176 T02610239
KFLO 150953Z 10003KT 9SM CLR 27/24 A3004 RMK AO2 SLP169 T02670239
KFLO 150853Z 00000KT 9SM OVC100 27/24 A3003 RMK AO2 SLP167 T02670244 55001
KFLO 150753Z 00000KT 10SM BKN100 27/24 A3003 RMK AO2 SLP163 T02720244
KFLO 150653Z 00000KT 10SM OVC100 28/24 A3003 RMK AO2 SLP164 T02780244
KFLO 150553Z 00000KT 10SM OVC100 28/24 A3003 RMK AO2 SLP166 T02780244 10322 20272 58003
KFLO 150453Z 18003KT 10SM CLR 27/24 A3004 RMK AO2 SLP170 T02720244 403560211
KFLO 150353Z 19005KT 10SM FEW110 28/24 A3005 RMK AO2 SLP172 T02830239
KFLO 150253Z 16006KT 10SM OVC100 28/24 A3004 RMK AO2 SLP170 T02830239 53017
KFLO 150153Z 17005KT 10SM BKN100 29/24 A3003 RMK AO2 SLP164 T02890239
KFLO 150053Z 16003KT 10SM FEW100 31/23 A3000 RMK AO2 SLP157 T03060233
KFLO 142353Z 14003KT 10SM SCT110 32/23 A2999 RMK AO2 SLP153 T03220233 10356 20322 53008
KFLO 142253Z 13005KT 10SM FEW100 34/21 A2998 RMK AO2 SLP148 T03390206
KFLO 142153Z 09005KT 10SM CLR 35/21 A2997 RMK AO2 SLP145 T03500211
KFLO 142053Z 10005KT 10SM SCT050 34/22 A2997 RMK AO2 SLP145 T03440217 55009
KFLO 141953Z 07003KT 10SM CLR 34/22 A2997 RMK AO2 SLP144 T03440217
KFLO 141853Z 00000KT 10SM SCT048 34/22 A2998 RMK AO2 SLP148 T03440217
KFLO 141753Z VRB03KT 10SM CLR 34/21 A2999 RMK AO2 SLP153 T03390211 10344 20244 57004
KFLO 141653Z VRB03KT 10SM CLR 33/22 A2999 RMK AO2 SLP153 T03280217
KFLO 141553Z 07005KT 10SM CLR 32/22 A3001 RMK AO2 SLP158 T03220222
KFLO 141453Z 00000KT 10SM CLR 31/22 A3001 RMK AO2 SLP158 T03110222 51015
KFLO 141353Z 07004KT 10SM CLR 29/22 A3000 RMK AO2 SLP154 T02940217
KFLO 141253Z 05004KT 10SM CLR 27/21 A2999 RMK AO2 SLP151 T02720211
KFLO 141153Z AUTO 10004KT 10SM CLR 24/20 A2996 RMK AO2 SLP143 70002 T02440200 10244 20211 52013
KFLO 141053Z AUTO 00000KT 10SM CLR 22/20 A2995 RMK AO2 SLP139 T02170200
KFLO 140953Z AUTO 00000KT 10SM CLR 22/20 A2993 RMK AO2 SLP133 T02170200
KFLO 140853Z AUTO 00000KT 10SM CLR 22/20 A2992 RMK AO2 SLP130 T02220200 53001
KFLO 140753Z AUTO 13003KT 10SM CLR 23/21 A2992 RMK AO2 SLP128 T02280206
KFLO 140653Z AUTO 00000KT 10SM CLR 23/21 A2991 RMK AO2 SLP127 T02280206
KFLO 140553Z AUTO 06006KT 10SM CLR 23/21 A2992 RMK AO2 SLP128 T02280206 10267 20228 53006
KFLO 140453Z AUTO 23003KT 10SM CLR 23/21 A2991 RMK AO2 SLP126 T02330206 403500233
KFLO 140353Z AUTO 00000KT 9SM CLR 24/21 A2990 RMK AO2 SLP123 T02440206
KFLO 140253Z AUTO 27003KT 10SM CLR 24/20 A2990 RMK AO2 SLP122 T02440200 50008
KFLO 140153Z AUTO 00000KT 10SM FEW100 25/20 A2991 RMK AO2 SLP124 T02500200
KFLO 140053Z AUTO 14004KT 10SM CLR 26/20 A2989 RMK AO2 SLP118 T02560200